Time;durP1;ratioP1;P1;durP2;ratioP2;P2;SDS_P1;SDS_P2;PMS_P1;PMS_P2;Temp;Humidity;BMP_temperature;BMP_pressure;BME280_temperature;BME280_humidity;BME280_pressure;Samples;Min_cycle;Max_cycle;Signal;HPM_P1;HPM_P2
2023/03/23 00:00:19;;;;;;;0.38;0.38;;;;;;;12.66;71.98;99879.97;5133930;28;20112;-82
2023/03/23 00:02:49;;;;;;;0.30;0.30;;;;;;;12.63;72.15;99871.38;5151091;28;20436;-83
2023/03/23 00:05:20;;;;;;;0.45;0.45;;;;;;;12.69;71.75;99871.06;5148386;28;20092;-82
2023/03/23 00:07:52;;;;;;;1.30;0.52;;;;;;;12.64;72.21;99871.34;5145532;28;20049;-82
2023/03/23 00:10:24;;;;;;;4.18;1.05;;;;;;;12.72;71.61;99863.03;5133629;28;20046;-82
2023/03/23 00:12:56;;;;;;;0.50;0.50;;;;;;;12.63;71.94;99861.72;5146641;28;20027;-82
2023/03/23 00:15:27;;;;;;;0.30;0.30;;;;;;;12.72;71.82;99865.69;5164394;28;20045;-82
2023/03/23 00:18:02;;;;;;;0.20;0.20;;;;;;;12.70;71.53;99863.13;5165638;28;20297;-82
2023/03/23 00:20:40;;;;;;;0.30;0.30;;;;;;;12.59;71.32;99858.41;5161959;28;20643;-83
2023/03/23 00:23:11;;;;;;;1.05;0.95;;;;;;;12.67;71.16;99872.97;5165392;28;20220;-83
2023/03/23 00:25:41;;;;;;;0.30;0.30;;;;;;;12.68;71.20;99859.72;5148912;28;20129;-82
2023/03/23 00:28:12;;;;;;;0.30;0.30;;;;;;;12.64;71.45;99852.03;5165014;28;20559;-83
2023/03/23 00:30:44;;;;;;;0.35;0.35;;;;;;;12.53;71.89;99853.41;5131820;28;20042;-82
2023/03/23 00:33:16;;;;;;;0.35;0.35;;;;;;;12.59;70.79;99853.13;5159690;28;20034;-82
2023/03/23 00:35:47;;;;;;;0.32;0.32;;;;;;;12.57;71.59;99857.63;5128057;28;20432;-83
2023/03/23 00:38:18;;;;;;;0.40;0.40;;;;;;;12.59;71.25;99855.78;5144960;28;20030;-83
2023/03/23 00:40:52;;;;;;;0.45;0.45;;;;;;;12.58;71.31;99848.81;5145706;28;20049;-82
2023/03/23 00:43:28;;;;;;;0.20;0.20;;;;;;;12.63;71.15;99848.56;5143094;28;20050;-82
2023/03/23 00:46:08;;;;;;;0.20;0.20;;;;;;;12.61;71.51;99842.53;5146635;28;20080;-82
2023/03/23 00:48:44;;;;;;;0.45;0.45;;;;;;;12.67;71.09;99831.69;5130056;28;20026;-83
2023/03/23 00:51:15;;;;;;;1.75;0.98;;;;;;;12.68;71.21;99843.09;5140372;28;20168;-82
2023/03/23 00:53:46;;;;;;;0.35;0.35;;;;;;;12.67;71.24;99852.75;5160709;28;20066;-82
2023/03/23 00:56:17;;;;;;;0.30;0.30;;;;;;;12.74;70.81;99846.25;5128020;28;20100;-82
2023/03/23 00:58:47;;;;;;;1.65;1.55;;;;;;;12.67;71.22;99857.16;5168192;28;20031;-82
2023/03/23 01:01:18;;;;;;;0.20;0.20;;;;;;;12.64;71.74;99841.53;5141552;28;20049;-84
2023/03/23 01:03:49;;;;;;;0.35;0.35;;;;;;;12.67;71.79;99844.00;5145666;28;20109;-81
2023/03/23 01:06:21;;;;;;;0.40;0.40;;;;;;;12.71;71.62;99854.31;5143660;28;20030;-82
2023/03/23 01:08:53;;;;;;;0.20;0.20;;;;;;;12.78;71.17;99844.31;5144081;28;20018;-82
2023/03/23 01:11:25;;;;;;;0.30;0.30;;;;;;;12.66;71.95;99847.56;5123016;28;20031;-82
2023/03/23 01:13:55;;;;;;;0.40;0.40;;;;;;;12.69;72.01;99837.72;5156962;28;20034;-83
2023/03/23 01:16:26;;;;;;;0.30;0.30;;;;;;;12.79;71.54;99846.00;5142738;28;20039;-82
2023/03/23 01:18:56;;;;;;;0.30;0.30;;;;;;;12.61;72.28;99839.91;5147066;28;20047;-82
2023/03/23 01:21:27;;;;;;;0.82;0.82;;;;;;;12.69;72.69;99828.97;5126953;28;20042;-84
2023/03/23 01:23:58;;;;;;;3.05;0.93;;;;;;;12.53;74.59;99835.00;5145208;28;20027;-83
2023/03/23 01:26:28;;;;;;;0.30;0.30;;;;;;;12.53;74.83;99840.25;5133936;28;20088;-82
2023/03/23 01:28:59;;;;;;;0.30;0.30;;;;;;;12.56;75.17;99850.66;5146132;28;20061;-83
2023/03/23 01:31:30;;;;;;;0.20;0.20;;;;;;;12.56;75.93;99853.28;5106591;28;20049;-82
2023/03/23 01:34:00;;;;;;;0.30;0.30;;;;;;;12.53;76.58;99847.31;5161259;28;20030;-83
2023/03/23 01:36:32;;;;;;;0.47;0.47;;;;;;;12.40;78.72;99844.44;5141376;28;20130;-82
2023/03/23 01:39:04;;;;;;;0.30;0.30;;;;;;;12.58;77.01;99833.00;5147394;28;20034;-83
2023/03/23 01:41:35;;;;;;;0.43;0.43;;;;;;;12.49;78.81;99817.69;5156712;28;20043;-83
2023/03/23 01:44:27;;;;;;;0.20;0.20;;;;;;;12.43;79.20;99818.81;5146340;28;20035;-82
2023/03/23 01:46:58;;;;;;;0.30;0.30;;;;;;;12.50;77.80;99814.13;5141450;28;20493;-82
2023/03/23 01:49:36;;;;;;;0.30;0.30;;;;;;;12.52;78.04;99806.13;5137437;28;20025;-83
2023/03/23 01:52:18;;;;;;;1.20;0.52;;;;;;;12.30;80.27;99803.72;5158602;28;20066;-83
2023/03/23 01:54:52;;;;;;;1.45;1.10;;;;;;;12.51;77.97;99779.00;5144535;28;20106;-83
2023/03/23 01:57:29;;;;;;;0.35;0.35;;;;;;;12.43;79.37;99765.38;5151605;28;20053;-84
2023/03/23 02:00:14;;;;;;;0.73;0.73;;;;;;;12.44;79.25;99762.66;5144347;28;20034;-83
2023/03/23 02:02:47;;;;;;;0.38;0.38;;;;;;;12.32;79.91;99765.88;5128600;28;20046;-83
2023/03/23 02:05:26;;;;;;;0.20;0.20;;;;;;;12.30;79.86;99785.31;5164123;28;20758;-83
2023/03/23 02:08:02;;;;;;;0.30;0.30;;;;;;;12.27;80.07;99778.41;5138346;28;20015;-82
2023/03/23 02:10:33;;;;;;;0.32;0.32;;;;;;;12.28;79.60;99767.81;5158567;28;20049;-83
2023/03/23 02:13:07;;;;;;;0.30;0.30;;;;;;;12.36;79.12;99775.34;5146323;28;20496;-83
2023/03/23 02:15:38;;;;;;;0.20;0.20;;;;;;;12.34;78.63;99752.69;5144135;28;20042;-82
2023/03/23 02:18:14;;;;;;;8.40;1.38;;;;;;;12.34;79.04;99745.63;5145046;28;20924;-82
2023/03/23 02:21:10;;;;;;;0.73;0.73;;;;;;;12.41;77.42;99735.66;5169584;28;20100;-81
2023/03/23 02:24:43;;;;;;;0.30;0.30;;;;;;;12.25;78.96;99741.69;5128141;28;20031;-82
2023/03/23 02:27:34;;;;;;;0.38;0.38;;;;;;;12.42;77.74;99745.25;5052590;29;20048;-82
2023/03/23 02:30:20;;;;;;;0.20;0.20;;;;;;;12.46;76.73;99736.25;5158050;28;20065;-81
2023/03/23 02:32:54;;;;;;;0.43;0.43;;;;;;;12.39;77.16;99741.00;5148938;28;20429;-83
2023/03/23 02:35:33;;;;;;;0.30;0.30;;;;;;;12.43;76.66;99750.44;5142185;28;20058;-84
2023/03/23 02:38:16;;;;;;;0.45;0.45;;;;;;;12.45;76.72;99758.22;5146441;28;20038;-83
2023/03/23 02:40:50;;;;;;;4.00;1.10;;;;;;;12.29;77.52;99768.69;5153054;28;20038;-83
2023/03/23 02:43:23;;;;;;;0.30;0.30;;;;;;;12.26;77.23;99768.81;5149308;28;20032;-83
2023/03/23 02:45:57;;;;;;;0.20;0.20;;;;;;;12.37;76.22;99770.91;5136722;28;20620;-83
2023/03/23 02:48:30;;;;;;;0.20;0.20;;;;;;;12.44;75.84;99778.44;5140354;28;20030;-83
2023/03/23 02:51:01;;;;;;;0.20;0.20;;;;;;;12.31;76.53;99782.63;5165692;28;20042;-82
2023/03/23 02:53:36;;;;;;;0.30;0.30;;;;;;;12.43;75.94;99779.38;5181540;28;20041;-82
2023/03/23 02:56:09;;;;;;;0.20;0.20;;;;;;;12.30;76.96;99769.53;5160859;28;20050;-83
2023/03/23 02:58:39;;;;;;;0.20;0.20;;;;;;;12.20;77.06;99761.25;5140094;28;20080;-82
2023/03/23 03:01:36;;;;;;;0.20;0.20;;;;;;;12.27;76.78;99766.09;5138525;28;20069;-82
2023/03/23 03:04:13;;;;;;;0.50;0.50;;;;;;;12.23;76.60;99775.09;5168114;28;20621;-83
2023/03/23 03:07:17;;;;;;;0.40;0.40;;;;;;;12.25;76.66;99760.09;5152097;28;20117;-83
2023/03/23 03:10:04;;;;;;;;;;;;;;;12.15;77.39;99750.94;5137072;28;20052;-83
2023/03/23 03:12:52;;;;;;;0.20;0.20;;;;;;;12.14;77.34;99746.63;5158179;28;19937;-84
2023/03/23 03:15:26;;;;;;;0.40;0.40;;;;;;;12.22;77.06;99751.50;5154489;28;20034;-82
2023/03/23 03:18:01;;;;;;;0.40;0.40;;;;;;;12.11;77.79;99770.41;5154295;28;20023;-82
2023/03/23 03:20:34;;;;;;;0.20;0.20;;;;;;;12.16;76.79;99768.44;5146904;28;20660;-82
2023/03/23 03:23:07;;;;;;;0.77;0.77;;;;;;;12.19;76.94;99768.25;5151164;28;20034;-83
2023/03/23 03:25:41;;;;;;;0.20;0.20;;;;;;;12.02;77.87;99761.22;5142364;28;20065;-82
2023/03/23 03:28:13;;;;;;;0.30;0.30;;;;;;;12.00;78.33;99751.69;5153384;28;20154;-82
2023/03/23 03:30:46;;;;;;;0.28;0.28;;;;;;;12.02;77.70;99755.94;5131514;28;20038;-83
2023/03/23 03:33:17;;;;;;;;;;;;;;;12.07;77.87;99753.94;5147180;28;20034;-83
2023/03/23 03:35:48;;;;;;;0.20;0.20;;;;;;;12.08;77.92;99763.53;5160296;28;20806;-83
2023/03/23 03:38:19;;;;;;;0.20;0.20;;;;;;;12.09;77.51;99761.78;5133898;28;20652;-84
2023/03/23 03:40:51;;;;;;;0.40;0.40;;;;;;;12.07;77.60;99753.09;5145830;28;21020;-84
2023/03/23 03:43:21;;;;;;;0.35;0.35;;;;;;;12.12;77.38;99762.47;5164615;28;20026;-83
2023/03/23 03:45:52;;;;;;;1.05;0.63;;;;;;;12.17;77.08;99761.38;5138060;28;20045;-83
2023/03/23 03:48:22;;;;;;;0.20;0.20;;;;;;;12.10;77.60;99745.06;5155521;28;20125;-84
2023/03/23 03:50:56;;;;;;;0.30;0.30;;;;;;;12.15;76.85;99745.69;5150068;28;20467;-84
2023/03/23 03:53:27;;;;;;;0.20;0.20;;;;;;;12.13;76.94;99752.78;5134013;28;20104;-84
2023/03/23 03:55:59;;;;;;;1.80;0.88;;;;;;;12.09;76.87;99746.84;5160030;28;20093;-82
2023/03/23 03:58:31;;;;;;;0.20;0.20;;;;;;;12.07;77.08;99753.09;5165358;28;20038;-82
2023/03/23 04:01:03;;;;;;;0.40;0.40;;;;;;;12.09;77.05;99756.53;5182908;28;20026;-83
2023/03/23 04:03:33;;;;;;;0.20;0.20;;;;;;;12.06;76.95;99759.28;5154761;28;20030;-83
2023/03/23 04:06:04;;;;;;;0.50;0.50;;;;;;;12.05;76.73;99754.94;5166147;28;20053;-82
2023/03/23 04:08:41;;;;;;;0.52;0.52;;;;;;;12.01;76.82;99754.25;5153979;28;20105;-83
2023/03/23 04:11:13;;;;;;;0.32;0.32;;;;;;;12.06;76.81;99748.78;5143769;28;20666;-83
2023/03/23 04:13:44;;;;;;;0.57;0.57;;;;;;;12.12;76.07;99745.81;5146831;28;20032;-83
2023/03/23 04:16:16;;;;;;;1.27;1.00;;;;;;;12.11;76.23;99749.38;5129098;28;20101;-83
2023/03/23 04:18:47;;;;;;;0.30;0.30;;;;;;;12.10;75.91;99755.59;5164813;28;20059;-83
2023/03/23 04:21:18;;;;;;;13.25;0.60;;;;;;;12.15;75.73;99748.31;5149415;28;20569;-82
2023/03/23 04:23:48;;;;;;;0.30;0.30;;;;;;;12.10;76.16;99751.19;5161046;28;20030;-83
2023/03/23 04:26:19;;;;;;;0.20;0.20;;;;;;;12.18;75.44;99748.19;5151881;28;20104;-83
2023/03/23 04:28:50;;;;;;;0.35;0.35;;;;;;;12.10;76.15;99752.97;5135460;28;20022;-83
2023/03/23 04:31:24;;;;;;;0.38;0.38;;;;;;;12.13;76.06;99765.94;5144489;28;20042;-83
2023/03/23 04:33:54;;;;;;;0.30;0.30;;;;;;;12.11;76.41;99773.91;5165453;28;20105;-83
2023/03/23 04:36:25;;;;;;;0.25;0.25;;;;;;;12.14;75.60;99765.03;5146713;28;20121;-82
2023/03/23 04:38:55;;;;;;;0.25;0.25;;;;;;;12.17;75.24;99774.53;5148241;28;20161;-83
2023/03/23 04:41:26;;;;;;;0.30;0.30;;;;;;;12.14;75.34;99785.22;5174446;28;20043;-83
2023/03/23 04:44:04;;;;;;;0.30;0.30;;;;;;;12.11;75.57;99775.69;5136300;28;20591;-82
2023/03/23 04:46:34;;;;;;;1.00;0.95;;;;;;;12.08;75.74;99786.38;5142808;28;20048;-82
2023/03/23 04:49:05;;;;;;;0.40;0.40;;;;;;;12.10;75.66;99792.41;5154662;28;20030;-83
2023/03/23 04:51:35;;;;;;;0.20;0.20;;;;;;;12.06;75.78;99796.09;5126639;28;20757;-83
2023/03/23 04:54:07;;;;;;;0.20;0.20;;;;;;;12.04;75.27;99779.53;5135965;28;20054;-82
2023/03/23 04:56:37;;;;;;;0.20;0.20;;;;;;;12.00;75.53;99793.75;5147003;28;20065;-82
2023/03/23 04:59:13;;;;;;;0.47;0.47;;;;;;;12.08;75.55;99796.88;5138203;28;20046;-83
2023/03/23 05:01:45;;;;;;;0.55;0.55;;;;;;;12.01;75.30;99792.84;5128567;28;20030;-82
2023/03/23 05:04:16;;;;;;;0.30;0.30;;;;;;;12.03;75.16;99794.47;5160470;28;20034;-84
2023/03/23 05:06:46;;;;;;;0.30;0.30;;;;;;;12.10;75.07;99792.41;5133142;28;20085;-82
2023/03/23 05:09:17;;;;;;;0.30;0.30;;;;;;;11.98;75.39;99785.09;5146735;28;20061;-83
2023/03/23 05:11:47;;;;;;;0.30;0.30;;;;;;;12.09;75.28;99793.31;5130344;28;20190;-83
2023/03/23 05:14:18;;;;;;;0.28;0.28;;;;;;;12.05;75.41;99797.88;5136645;28;20121;-82
2023/03/23 05:16:48;;;;;;;0.20;0.20;;;;;;;12.00;75.40;99785.88;5130053;28;20086;-82
2023/03/23 05:19:19;;;;;;;0.30;0.30;;;;;;;12.06;75.46;99785.56;5144966;28;20046;-82
2023/03/23 05:21:49;;;;;;;0.20;0.20;;;;;;;12.02;75.29;99805.06;5145963;28;20030;-82
2023/03/23 05:24:20;;;;;;;1.83;0.65;;;;;;;12.03;75.09;99796.22;5145694;28;20049;-83
2023/03/23 05:26:52;;;;;;;0.40;0.40;;;;;;;12.05;74.83;99799.66;5130017;28;20023;-82
2023/03/23 05:29:23;;;;;;;0.27;0.27;;;;;;;11.95;74.80;99802.69;5148794;28;20971;-81
2023/03/23 05:31:55;;;;;;;0.75;0.75;;;;;;;11.96;74.98;99799.13;5144644;28;20029;-82
2023/03/23 05:34:26;;;;;;;0.30;0.30;;;;;;;11.88;74.97;99800.44;5128536;28;20397;-82
2023/03/23 05:36:57;;;;;;;0.20;0.20;;;;;;;11.88;75.23;99811.78;5147317;28;20037;-82
2023/03/23 05:39:31;;;;;;;1.57;1.47;;;;;;;12.01;74.65;99811.25;5137676;28;20049;-81
2023/03/23 05:42:02;;;;;;;0.73;0.65;;;;;;;11.91;74.29;99810.78;5149760;28;20041;-82
2023/03/23 05:44:33;;;;;;;0.60;0.60;;;;;;;11.92;74.03;99817.75;5160954;28;20091;-82
2023/03/23 05:47:03;;;;;;;0.40;0.40;;;;;;;11.95;73.92;99805.31;5159368;28;20015;-82
2023/03/23 05:49:36;;;;;;;0.40;0.40;;;;;;;11.98;73.69;99807.00;5145322;28;20501;-81
2023/03/23 05:52:07;;;;;;;0.30;0.30;;;;;;;11.92;73.94;99816.00;5156639;28;20110;-82
2023/03/23 05:54:37;;;;;;;0.20;0.20;;;;;;;11.93;74.02;99815.06;5149101;28;20050;-84
2023/03/23 05:57:08;;;;;;;0.50;0.50;;;;;;;11.92;73.89;99821.25;5149144;28;20034;-84
2023/03/23 05:59:39;;;;;;;0.85;0.73;;;;;;;11.86;74.22;99821.50;5156480;28;20068;-83
2023/03/23 06:02:11;;;;;;;3.50;1.27;;;;;;;12.03;73.56;99820.75;5124488;28;20054;-83
2023/03/23 06:04:41;;;;;;;0.30;0.30;;;;;;;11.94;73.25;99823.78;5139973;28;20062;-84
2023/03/23 06:07:14;;;;;;;0.20;0.20;;;;;;;11.92;73.15;99828.25;5163472;28;20063;-83
2023/03/23 06:09:44;;;;;;;0.30;0.30;;;;;;;11.83;73.87;99829.56;5145200;28;20038;-86
2023/03/23 06:12:15;;;;;;;0.20;0.20;;;;;;;11.92;73.35;99828.25;5146068;28;20041;-86
2023/03/23 06:14:47;;;;;;;0.75;0.75;;;;;;;11.98;73.37;99835.03;5129444;28;20042;-85
2023/03/23 06:17:18;;;;;;;0.30;0.30;;;;;;;11.92;73.23;99839.66;5129456;28;20475;-85
2023/03/23 06:19:50;;;;;;;0.40;0.40;;;;;;;11.94;73.30;99842.19;5146608;28;20042;-85
2023/03/23 06:22:21;;;;;;;0.43;0.43;;;;;;;12.01;72.84;99842.78;5139691;28;20031;-84
2023/03/23 06:24:51;;;;;;;0.82;0.82;;;;;;;12.02;72.92;99834.81;5134844;28;20084;-85
2023/03/23 06:27:23;;;;;;;0.95;0.82;;;;;;;11.95;73.28;99844.72;5134832;28;20049;-85
2023/03/23 06:29:56;;;;;;;0.40;0.40;;;;;;;12.00;72.99;99833.19;5147437;28;20085;-85
2023/03/23 06:32:30;;;;;;;0.40;0.40;;;;;;;12.01;72.84;99841.00;5128475;28;20035;-85
2023/03/23 06:35:01;;;;;;;0.73;0.73;;;;;;;12.06;72.23;99835.53;5122471;28;20102;-85
2023/03/23 06:37:32;;;;;;;0.20;0.20;;;;;;;11.91;72.87;99837.94;5147171;28;20044;-85
2023/03/23 06:40:07;;;;;;;0.57;0.57;;;;;;;11.96;72.89;99843.81;5127313;28;20201;-85
2023/03/23 06:42:38;;;;;;;0.85;0.60;;;;;;;11.98;73.11;99842.94;5132616;28;20443;-85
2023/03/23 06:45:09;;;;;;;0.20;0.20;;;;;;;12.04;72.81;99842.63;5128022;28;20074;-86
2023/03/23 06:47:39;;;;;;;0.55;0.55;;;;;;;12.04;72.54;99842.63;5140021;28;20041;-85
2023/03/23 06:50:10;;;;;;;0.40;0.40;;;;;;;12.03;72.45;99856.69;5131466;28;20081;-85
2023/03/23 06:52:45;;;;;;;0.20;0.20;;;;;;;12.12;72.62;99859.78;5124713;28;20030;-86
2023/03/23 06:55:16;;;;;;;0.20;0.20;;;;;;;12.16;72.82;99863.09;5159318;28;20062;-86
2023/03/23 06:57:50;;;;;;;13.63;0.90;;;;;;;12.11;72.63;99855.44;5124773;28;20480;-85
2023/03/23 07:00:21;;;;;;;0.20;0.20;;;;;;;12.09;72.47;99856.44;5145110;28;20041;-84
2023/03/23 07:02:51;;;;;;;0.30;0.30;;;;;;;12.14;72.72;99859.69;5133824;28;20026;-84
2023/03/23 07:05:22;;;;;;;0.52;0.52;;;;;;;12.09;72.88;99862.53;5130784;28;20100;-86
2023/03/23 07:07:53;;;;;;;0.30;0.30;;;;;;;12.06;72.73;99857.44;5162430;28;20024;-86
2023/03/23 07:10:23;;;;;;;0.35;0.35;;;;;;;12.17;72.22;99859.56;5157861;28;20038;-85
2023/03/23 07:12:54;;;;;;;0.22;0.22;;;;;;;12.20;72.62;99864.66;5142919;28;20102;-85
2023/03/23 07:15:25;;;;;;;0.35;0.35;;;;;;;12.18;72.07;99866.53;5158942;28;20274;-84
2023/03/23 07:17:55;;;;;;;0.30;0.30;;;;;;;12.14;72.32;99858.84;5159497;28;20026;-85
2023/03/23 07:20:26;;;;;;;0.40;0.40;;;;;;;12.22;71.74;99857.53;5127552;28;20661;-84
2023/03/23 07:22:57;;;;;;;0.20;0.20;;;;;;;12.22;72.04;99857.53;5150874;28;20369;-85
2023/03/23 07:25:28;;;;;;;0.50;0.50;;;;;;;12.27;71.31;99871.31;5131483;28;20062;-85
2023/03/23 07:28:00;;;;;;;0.22;0.22;;;;;;;12.32;70.77;99857.09;5160630;28;20026;-86
2023/03/23 07:30:31;;;;;;;0.20;0.20;;;;;;;12.24;70.56;99860.97;5130782;28;20066;-85
2023/03/23 07:33:06;;;;;;;0.20;0.20;;;;;;;12.33;70.29;99858.81;5156684;28;20062;-84
2023/03/23 07:35:37;;;;;;;0.30;0.30;;;;;;;12.35;70.13;99864.88;5146216;28;20026;-84
2023/03/23 07:38:08;;;;;;;0.28;0.28;;;;;;;12.24;70.35;99858.34;5144583;28;20512;-84
2023/03/23 07:40:39;;;;;;;0.30;0.30;;;;;;;12.26;70.41;99868.78;5160859;28;20054;-84
2023/03/23 07:43:09;;;;;;;0.63;0.63;;;;;;;12.31;69.75;99865.91;5132205;28;20092;-83
2023/03/23 07:45:40;;;;;;;0.30;0.30;;;;;;;12.27;70.04;99868.69;5128576;28;20062;-85
2023/03/23 07:48:11;;;;;;;0.40;0.40;;;;;;;12.36;69.88;99858.66;5132739;28;20053;-84
2023/03/23 07:50:43;;;;;;;0.30;0.30;;;;;;;12.35;69.73;99864.88;5145976;28;20111;-85
2023/03/23 07:53:15;;;;;;;0.50;0.50;;;;;;;12.38;69.65;99862.06;5130126;28;20126;-86
2023/03/23 07:55:47;;;;;;;0.20;0.20;;;;;;;12.34;69.58;99866.63;5130805;28;20190;-85
2023/03/23 07:58:28;;;;;;;0.20;0.20;;;;;;;12.43;69.89;99866.19;5147114;28;20037;-86
2023/03/23 08:01:01;;;;;;;0.20;0.20;;;;;;;12.47;69.23;99866.03;5109017;28;20114;-86
2023/03/23 08:03:45;;;;;;;0.57;0.57;;;;;;;12.43;69.37;99875.88;5188166;28;20045;-85
2023/03/23 08:06:16;;;;;;;0.30;0.30;;;;;;;12.50;69.30;99873.75;5121964;23;20139;-90
2023/03/23 08:08:46;;;;;;;0.52;0.52;;;;;;;12.54;69.31;99870.91;5132761;28;20084;-90
2023/03/23 08:11:18;;;;;;;0.30;0.30;;;;;;;12.55;69.21;99869.16;5069907;29;20039;-90
2023/03/23 08:13:48;;;;;;;1.17;0.82;;;;;;;12.56;69.10;99863.81;5105449;29;20126;-89
2023/03/23 08:16:19;;;;;;;0.40;0.40;;;;;;;12.59;68.58;99875.94;5112723;28;20122;-91
2023/03/23 08:18:50;;;;;;;0.35;0.35;;;;;;;12.56;68.65;99876.13;5123962;28;20046;-88
2023/03/23 08:21:22;;;;;;;0.20;0.20;;;;;;;12.57;68.80;99873.41;5095276;28;20071;-88
2023/03/23 08:23:52;;;;;;;0.20;0.20;;;;;;;12.68;68.45;99872.88;5093311;29;20505;-90
2023/03/23 08:26:22;;;;;;;0.30;0.30;;;;;;;12.59;67.80;99886.47;5111147;28;20051;-91
2023/03/23 08:28:53;;;;;;;0.63;0.63;;;;;;;12.61;68.02;99887.25;5105599;28;20492;-89
2023/03/23 08:31:24;;;;;;;22.77;1.05;;;;;;;12.68;67.63;99883.41;5106773;28;20098;-90
2023/03/23 08:33:56;;;;;;;0.10;0.10;;;;;;;12.62;67.97;99891.59;5109489;28;20055;-88
2023/03/23 08:36:27;;;;;;;4.40;2.17;;;;;;;12.69;67.24;99893.00;5106137;28;20044;-86
2023/03/23 08:38:59;;;;;;;0.20;0.20;;;;;;;12.77;66.78;99897.03;5088502;29;20039;-85
2023/03/23 08:41:30;;;;;;;0.45;0.45;;;;;;;12.79;68.08;99898.66;5074358;28;20036;-85
2023/03/23 08:44:01;;;;;;;0.20;0.20;;;;;;;12.82;67.86;99897.66;5071394;29;20032;-88
2023/03/23 08:46:32;;;;;;;0.55;0.55;;;;;;;12.88;67.72;99908.72;5075641;28;20131;-87
2023/03/23 08:49:02;;;;;;;0.20;0.20;;;;;;;12.85;67.28;99913.31;5105287;28;20118;-87
2023/03/23 08:51:33;;;;;;;1.48;0.65;;;;;;;12.81;67.21;99919.66;5106200;28;20028;-87
2023/03/23 08:54:03;;;;;;;1.17;1.08;;;;;;;12.89;66.65;99909.59;5127776;28;20036;-86
2023/03/23 08:56:34;;;;;;;0.68;0.68;;;;;;;12.97;67.26;99911.84;5135200;28;20070;-87
2023/03/23 08:59:04;;;;;;;0.47;0.47;;;;;;;13.00;66.77;99911.69;5130179;28;20035;-86
2023/03/23 09:01:35;;;;;;;0.20;0.20;;;;;;;12.95;66.64;99903.16;5130261;28;20107;-87
2023/03/23 09:04:05;;;;;;;0.28;0.28;;;;;;;13.04;66.13;99903.56;5108588;28;20114;-86
2023/03/23 09:06:36;;;;;;;1.35;0.55;;;;;;;12.97;65.93;99911.84;5121503;28;20133;-86
2023/03/23 09:09:06;;;;;;;6.10;1.30;;;;;;;12.97;65.88;99911.84;5132430;28;20039;-86
2023/03/23 09:11:37;;;;;;;0.30;0.30;;;;;;;13.00;66.10;99901.16;5147455;23;20052;-85
2023/03/23 09:14:08;;;;;;;0.35;0.35;;;;;;;13.06;66.15;99906.13;5119625;28;20046;-85
2023/03/23 09:16:39;;;;;;;0.30;0.30;;;;;;;13.09;65.70;99905.97;5118679;28;20031;-85
2023/03/23 09:19:10;;;;;;;0.20;0.20;;;;;;;13.06;65.38;99898.22;5124807;28;20334;-85
2023/03/23 09:21:41;;;;;;;1.02;0.77;;;;;;;13.05;65.63;99893.88;5105068;28;20464;-85
2023/03/23 09:24:12;;;;;;;0.30;0.30;;;;;;;13.08;66.00;99909.53;5135388;28;20038;-85
2023/03/23 09:26:42;;;;;;;11.50;1.42;;;;;;;13.08;65.61;99914.78;5148939;28;20097;-85
2023/03/23 09:29:13;;;;;;;2.53;2.33;;;;;;;13.04;65.00;99922.00;5112069;28;20042;-86
2023/03/23 09:31:46;;;;;;;0.20;0.20;;;;;;;13.12;65.38;99926.88;5131405;28;20035;-85
2023/03/23 09:34:16;;;;;;;0.20;0.20;;;;;;;13.02;64.73;99925.63;5133276;28;20049;-85
2023/03/23 09:36:48;;;;;;;0.20;0.20;;;;;;;13.03;64.97;99929.97;5116946;28;20031;-85
2023/03/23 09:39:18;;;;;;;0.30;0.30;;;;;;;12.93;65.44;99926.09;5116911;28;20378;-84
2023/03/23 09:42:17;;;;;;;0.20;0.20;;;;;;;12.93;65.79;99931.38;5129808;28;20237;-85
2023/03/23 09:45:01;;;;;;;2.72;1.23;;;;;;;12.87;65.98;99925.47;5132833;28;20049;-85
2023/03/23 09:47:38;;;;;;;0.30;0.30;;;;;;;12.93;66.72;99920.84;5116041;28;20050;-84
2023/03/23 09:50:16;;;;;;;0.20;0.20;;;;;;;13.04;66.26;99918.50;5148051;28;20451;-84
2023/03/23 09:53:01;;;;;;;0.30;0.30;;;;;;;13.05;66.52;99914.94;5116552;28;20429;-84
2023/03/23 09:55:31;;;;;;;0.20;0.20;;;;;;;13.03;66.99;99922.06;5111422;28;20416;-84
2023/03/23 09:58:31;;;;;;;8.77;0.77;;;;;;;12.99;66.92;99916.09;5116357;28;20030;-85
2023/03/23 10:01:28;;;;;;;0.20;0.20;;;;;;;12.95;67.74;99933.00;5103484;28;20051;-85
2023/03/23 10:04:32;;;;;;;0.20;0.20;;;;;;;12.92;67.84;99943.66;5124639;28;20098;-85
2023/03/23 10:07:22;;;;;;;;;;;;;;;12.84;69.30;99933.53;5127725;28;20042;-85
2023/03/23 10:09:56;;;;;;;0.28;0.28;;;;;;;12.75;69.08;99947.97;5147754;28;19918;-85
2023/03/23 10:12:50;;;;;;;28.77;2.72;;;;;;;12.74;70.29;99951.53;5102252;28;20037;-84
2023/03/23 10:15:26;;;;;;;0.28;0.28;;;;;;;12.35;72.07;99963.03;5134711;28;20404;-84
2023/03/23 10:18:01;;;;;;;0.50;0.50;;;;;;;12.53;72.32;99971.81;5123792;28;20035;-85
2023/03/23 10:20:48;;;;;;;0.20;0.20;;;;;;;12.26;75.17;99972.22;5138521;28;20057;-85
2023/03/23 10:23:19;;;;;;;0.20;0.20;;;;;;;12.19;76.04;99968.13;5135193;28;20093;-85
2023/03/23 10:25:56;;;;;;;0.20;0.20;;;;;;;12.18;75.93;99968.22;5137449;28;20509;-85
2023/03/23 10:28:46;;;;;;;0.25;0.25;;;;;;;12.33;75.46;99969.28;5120527;28;20031;-85
2023/03/23 10:31:23;;;;;;;0.60;0.60;;;;;;;12.41;75.02;99980.31;5129638;28;20045;-85
2023/03/23 10:33:59;;;;;;;0.30;0.30;;;;;;;12.40;74.99;99986.50;5116643;28;20027;-85
2023/03/23 10:36:35;;;;;;;0.20;0.20;;;;;;;12.57;74.04;99983.94;5110564;28;20607;-86
2023/03/23 10:39:20;;;;;;;0.20;0.20;;;;;;;12.19;76.81;99978.66;5101656;28;20420;-86
2023/03/23 10:41:50;;;;;;;0.20;0.20;;;;;;;11.95;78.70;99973.56;5114677;28;20125;-85
2023/03/23 10:44:25;;;;;;;0.20;0.20;;;;;;;12.00;78.07;99990.94;5123138;28;20030;-85
2023/03/23 10:47:07;;;;;;;0.30;0.30;;;;;;;11.95;78.68;99984.06;5100146;28;20031;-85
2023/03/23 10:49:43;;;;;;;1.10;0.73;;;;;;;12.04;78.67;99982.84;5116903;28;20100;-85
2023/03/23 10:52:34;;;;;;;0.22;0.22;;;;;;;12.04;78.32;99984.59;5100450;28;20034;-85
2023/03/23 10:55:12;;;;;;;0.20;0.20;;;;;;;12.06;78.47;99982.78;5103784;28;20046;-85
2023/03/23 10:57:46;;;;;;;0.30;0.30;;;;;;;12.22;77.19;99983.78;5112918;28;20517;-84
2023/03/23 11:00:26;;;;;;;0.30;0.30;;;;;;;12.16;77.98;99984.06;5149932;28;20043;-85
2023/03/23 11:02:56;;;;;;;0.77;0.77;;;;;;;12.33;76.05;99992.97;5129737;28;20053;-85
2023/03/23 11:05:35;;;;;;;0.20;0.20;;;;;;;12.23;77.11;100005.69;5151299;28;20038;-85
2023/03/23 11:08:13;;;;;;;0.52;0.52;;;;;;;11.94;79.10;100016.53;5116928;28;20054;-85
2023/03/23 11:10:53;;;;;;;0.20;0.20;;;;;;;11.61;80.20;100021.50;5139516;28;20062;-85
2023/03/23 11:13:30;;;;;;;0.20;0.20;;;;;;;11.84;78.88;100015.25;5121402;28;20042;-87
2023/03/23 11:16:01;;;;;;;0.40;0.40;;;;;;;12.11;76.58;100001.81;5135373;28;20041;-86
2023/03/23 11:18:36;;;;;;;0.32;0.32;;;;;;;12.34;75.45;99992.03;5121842;28;20035;-86
2023/03/23 11:21:11;;;;;;;0.20;0.20;;;;;;;12.39;74.78;99995.31;5120191;28;20170;-86
2023/03/23 11:23:50;;;;;;;0.60;0.60;;;;;;;12.43;74.45;99996.88;5154340;28;20035;-87
2023/03/23 11:26:30;;;;;;;0.30;0.30;;;;;;;12.43;74.40;99996.88;5101945;28;20045;-86
2023/03/23 11:29:12;;;;;;;0.40;0.40;;;;;;;12.37;75.67;99999.78;5123157;28;20039;-85
2023/03/23 11:31:50;;;;;;;0.40;0.40;;;;;;;12.46;74.75;99996.72;5134934;28;20528;-84
2023/03/23 11:34:42;;;;;;;0.20;0.20;;;;;;;12.44;76.74;100003.81;5135450;28;20034;-85
2023/03/23 11:37:42;;;;;;;0.20;0.20;;;;;;;12.48;75.55;100000.16;5137108;28;20460;-83
2023/03/23 11:40:18;;;;;;;0.28;0.28;;;;;;;12.53;74.94;99992.88;5122541;28;20042;-84
2023/03/23 11:43:07;;;;;;;0.20;0.20;;;;;;;12.45;76.35;99989.75;5152584;28;20030;-82
2023/03/23 11:45:52;;;;;;;0.20;0.20;;;;;;;12.58;76.53;99992.66;5132162;28;20488;-83
2023/03/23 11:49:04;;;;;;;0.38;0.38;;;;;;;12.53;76.82;99986.78;5117546;28;20031;-83
2023/03/23 11:51:52;;;;;;;0.20;0.20;;;;;;;12.72;76.95;99981.50;5099201;28;20507;-82
2023/03/23 11:54:36;;;;;;;0.40;0.40;;;;;;;12.81;76.42;99986.31;5118091;28;20909;-83
2023/03/23 11:57:13;;;;;;;0.40;0.40;;;;;;;12.85;78.45;99977.31;5136702;28;20027;-83
2023/03/23 11:59:43;;;;;;;0.20;0.20;;;;;;;12.89;77.02;99968.38;5136514;28;20046;-84
2023/03/23 12:02:32;;;;;;;0.20;0.20;;;;;;;13.01;77.34;99979.25;5135761;28;20026;-84
2023/03/23 12:05:20;;;;;;;0.30;0.30;;;;;;;13.00;78.15;99981.00;5137779;28;20157;-86
2023/03/23 12:08:17;;;;;;;0.47;0.47;;;;;;;13.19;79.18;99972.19;5127902;28;20465;-84